createdAt,value
2023-04-23T00:02:12.245Z,11.09
2023-04-23T00:04:41.079Z,11.42
2023-04-23T00:07:10.177Z,11.22
2023-04-23T00:09:39.189Z,11.16
2023-04-23T00:12:08.248Z,10.99
2023-04-23T00:14:37.132Z,10.74
2023-04-23T00:17:05.459Z,10.98
2023-04-23T00:19:35.118Z,10.93
2023-04-23T00:22:03.380Z,11.07
2023-04-23T00:24:32.092Z,10.85
2023-04-23T00:27:01.146Z,10.26
2023-04-23T00:29:29.431Z,10.51
2023-04-23T00:31:57.780Z,10.16
2023-04-23T00:34:26.025Z,10.36
2023-04-23T00:36:55.670Z,10.44
2023-04-23T00:39:24.147Z,10.16
2023-04-23T00:41:52.299Z,10.10
2023-04-23T00:44:22.658Z,10.49
2023-04-23T00:46:52.297Z,9.72
2023-04-23T00:49:22.080Z,10.52
2023-04-23T00:51:50.409Z,10.50
2023-04-23T00:54:20.085Z,10.51
2023-04-23T00:56:48.528Z,10.33
2023-04-23T00:59:16.882Z,10.37
2023-04-23T01:01:46.037Z,10.71
2023-04-23T01:04:14.623Z,10.72
2023-04-23T01:06:43.627Z,10.74
2023-04-23T01:09:12.328Z,10.53
2023-04-23T01:11:44.327Z,10.22
2023-04-23T01:14:13.075Z,10.49
2023-04-23T01:16:41.338Z,10.60
2023-04-23T01:19:10.616Z,10.30
2023-04-23T01:21:41.501Z,10.21
2023-04-23T01:24:12.214Z,10.47
2023-04-23T01:26:41.019Z,10.66
2023-04-23T01:29:10.548Z,10.43
2023-04-23T01:31:38.976Z,10.43
2023-04-23T01:34:07.770Z,10.58
2023-04-23T01:36:36.942Z,10.51
2023-04-23T01:39:05.207Z,10.43
2023-04-23T01:41:35.090Z,10.15
2023-04-23T01:44:03.400Z,10.28
2023-04-23T01:46:31.884Z,10.26
2023-04-23T01:49:00.253Z,10.05
2023-04-23T01:51:29.947Z,10.12
2023-04-23T01:53:58.139Z,10.28
2023-04-23T01:56:28.459Z,10.08
2023-04-23T01:58:58.294Z,10.44
2023-04-23T02:01:26.582Z,10.07
2023-04-23T02:03:55.735Z,10.17
2023-04-23T02:06:24.090Z,9.97
2023-04-23T02:08:52.369Z,9.79
2023-04-23T02:11:20.633Z,9.86
2023-04-23T02:13:48.859Z,10.10
2023-04-23T02:16:19.743Z,9.94
2023-04-23T02:18:48.058Z,10.10
2023-04-23T02:21:16.303Z,9.92
2023-04-23T02:23:44.529Z,9.96
2023-04-23T02:26:12.777Z,9.97
2023-04-23T02:28:41.415Z,9.78
2023-04-23T02:31:09.759Z,9.49
2023-04-23T02:33:42.611Z,9.59
2023-04-23T02:36:12.345Z,9.52
2023-04-23T02:38:41.651Z,9.43
2023-04-23T02:41:09.930Z,9.53
2023-04-23T02:43:38.243Z,9.58
2023-04-23T02:46:09.552Z,9.41
2023-04-23T02:48:38.831Z,9.31
2023-04-23T02:51:11.604Z,9.17
2023-04-23T02:53:39.963Z,9.27
2023-04-23T02:56:08.599Z,9.50
2023-04-23T02:58:37.183Z,9.53
2023-04-23T03:01:06.234Z,9.86
2023-04-23T03:03:35.140Z,9.50
2023-04-23T03:06:06.880Z,9.41
2023-04-23T03:08:36.489Z,9.67
2023-04-23T03:11:04.767Z,9.79
2023-04-23T03:13:33.028Z,9.65
2023-04-23T03:16:01.388Z,9.46
2023-04-23T03:18:29.742Z,9.44
2023-04-23T03:20:58.534Z,9.43
2023-04-23T03:23:26.746Z,9.45
2023-04-23T03:25:56.353Z,9.67
2023-04-23T03:28:24.586Z,9.60
2023-04-23T03:30:53.088Z,9.32
2023-04-23T03:33:21.604Z,9.42
2023-04-23T03:35:49.981Z,9.25
2023-04-23T03:38:22.941Z,9.14
2023-04-23T03:40:53.410Z,9.22
2023-04-23T03:43:23.241Z,9.25
2023-04-23T03:46:21.048Z,8.94
2023-04-23T03:48:49.362Z,8.90
2023-04-23T03:51:24.771Z,8.85
2023-04-23T03:53:53.004Z,9.03
2023-04-23T03:56:39.677Z,9.11
2023-04-23T03:59:14.983Z,9.11
2023-04-23T04:01:44.599Z,9.42
2023-04-23T04:04:13.126Z,9.10
2023-04-23T04:06:41.758Z,9.25
2023-04-23T04:09:10.116Z,9.03
2023-04-23T04:11:38.479Z,8.87
2023-04-23T04:14:06.705Z,9.35
2023-04-23T04:16:36.381Z,9.33
2023-04-23T04:19:05.036Z,9.31
2023-04-23T04:21:33.930Z,9.20
2023-04-23T04:24:02.912Z,9.32
2023-04-23T04:26:32.602Z,9.33
2023-04-23T04:29:01.684Z,9.15
2023-04-23T04:31:30.216Z,9.27
2023-04-23T04:34:00.042Z,9.22
2023-04-23T04:36:29.005Z,8.98
2023-04-23T04:38:58.730Z,9.18
2023-04-23T04:41:27.851Z,9.30
2023-04-23T04:43:56.149Z,9.32
2023-04-23T04:46:26.274Z,9.39
2023-04-23T04:48:55.281Z,9.37
2023-04-23T04:51:24.945Z,9.39
2023-04-23T04:53:53.209Z,9.42
2023-04-23T04:56:24.213Z,9.45
2023-04-23T04:58:52.590Z,9.50
2023-04-23T05:01:21.539Z,9.60
2023-04-23T05:03:50.089Z,9.78
2023-04-23T05:06:18.555Z,9.94
2023-04-23T05:08:49.130Z,10.13
2023-04-23T05:11:18.433Z,10.34
2023-04-23T05:13:46.889Z,10.66
2023-04-23T05:16:15.197Z,10.95
2023-04-23T05:18:43.621Z,11.10
2023-04-23T05:21:11.934Z,11.19
2023-04-23T05:23:40.108Z,11.34
2023-04-23T05:26:09.744Z,11.40
2023-04-23T05:28:38.068Z,11.50
2023-04-23T05:31:06.471Z,11.67
2023-04-23T05:33:46.281Z,11.76
2023-04-23T05:36:17.862Z,12.06
2023-04-23T05:38:46.147Z,12.03
2023-04-23T05:41:16.263Z,12.05
2023-04-23T05:43:44.616Z,12.01
2023-04-23T05:46:12.971Z,12.24
2023-04-23T05:48:43.870Z,12.35
2023-04-23T05:51:12.559Z,12.31
2023-04-23T05:53:40.896Z,12.45
2023-04-23T05:56:09.245Z,12.29
2023-04-23T05:58:39.832Z,12.78
2023-04-23T06:01:09.547Z,12.40
2023-04-23T06:03:38.848Z,12.87
2023-04-23T06:06:07.885Z,12.53
2023-04-23T06:08:36.222Z,12.51
2023-04-23T06:11:05.161Z,12.36
2023-04-23T06:13:35.946Z,13.08
2023-04-23T06:16:08.611Z,13.33
2023-04-23T06:18:38.237Z,13.25
2023-04-23T06:21:07.725Z,13.29
2023-04-23T06:23:37.847Z,13.60
2023-04-23T06:26:07.059Z,13.95
2023-04-23T06:28:35.919Z,14.16
2023-04-23T06:31:27.381Z,14.01
2023-04-23T06:33:58.145Z,14.11
2023-04-23T06:36:37.570Z,14.26
2023-04-23T06:39:12.738Z,14.15
2023-04-23T06:41:50.326Z,14.81
2023-04-23T06:44:47.818Z,14.96
2023-04-23T06:47:29.468Z,14.87
2023-04-23T06:49:59.794Z,14.94
2023-04-23T06:52:30.462Z,15.23
2023-04-23T06:54:59.981Z,15.28
2023-04-23T06:57:33.973Z,15.40
2023-04-23T07:00:05.490Z,15.45
2023-04-23T07:02:42.848Z,15.40
2023-04-23T07:05:12.552Z,15.33
2023-04-23T07:07:45.764Z,15.55
2023-04-23T07:10:17.451Z,15.74
2023-04-23T07:12:58.754Z,15.60
2023-04-23T07:15:29.748Z,15.70
2023-04-23T07:18:02.372Z,15.82
2023-04-23T07:20:35.759Z,15.81
2023-04-23T07:23:04.192Z,15.62
2023-04-23T07:25:33.748Z,16.07
2023-04-23T07:28:09.602Z,16.06
2023-04-23T07:30:39.621Z,15.95
2023-04-23T07:33:13.592Z,16.22
2023-04-23T07:35:41.764Z,16.33
2023-04-23T07:38:10.426Z,16.27
2023-04-23T07:40:40.923Z,16.47
2023-04-23T07:43:21.336Z,16.57
2023-04-23T07:45:50.606Z,16.55
2023-04-23T07:48:20.651Z,16.66
2023-04-23T07:50:50.789Z,16.68
2023-04-23T07:53:20.171Z,16.99
2023-04-23T07:55:48.404Z,17.00
2023-04-23T07:58:16.699Z,17.09
2023-04-23T08:00:44.871Z,17.25
2023-04-23T08:03:13.295Z,17.18
2023-04-23T08:05:43.962Z,17.58
2023-04-23T08:08:14.122Z,17.54
2023-04-23T08:10:44.867Z,17.43
2023-04-23T08:13:14.120Z,17.65
2023-04-23T08:15:43.592Z,17.82
2023-04-23T08:18:13.320Z,17.98
2023-04-23T08:20:52.015Z,18.24
2023-04-23T08:23:20.439Z,18.18
2023-04-23T08:25:50.098Z,18.56
2023-04-23T08:28:19.738Z,18.67
2023-04-23T08:30:48.136Z,18.72
2023-04-23T08:33:16.646Z,19.18
2023-04-23T08:35:49.102Z,19.23
2023-04-23T08:38:17.429Z,19.56
2023-04-23T08:40:47.884Z,19.75
2023-04-23T08:43:19.231Z,19.79
2023-04-23T08:45:50.415Z,19.64
2023-04-23T08:48:19.683Z,19.76
2023-04-23T08:50:50.230Z,19.87
2023-04-23T08:53:22.699Z,20.24
2023-04-23T08:55:51.683Z,19.96
2023-04-23T08:58:20.919Z,20.51
2023-04-23T09:00:50.346Z,20.70
2023-04-23T09:03:18.747Z,21.03
2023-04-23T09:05:48.183Z,20.55
2023-04-23T09:08:17.910Z,20.91
2023-04-23T09:10:46.278Z,21.29
2023-04-23T09:13:15.482Z,21.41
2023-04-23T09:15:44.530Z,21.40
2023-04-23T09:18:12.854Z,21.37
2023-04-23T09:20:42.356Z,21.59
2023-04-23T09:23:12.565Z,21.56
2023-04-23T09:25:43.896Z,21.88
2023-04-23T09:28:12.466Z,21.86
2023-04-23T09:30:42.354Z,22.84
2023-04-23T09:33:12.662Z,22.85
2023-04-23T09:35:42.339Z,23.11
2023-04-23T09:38:11.258Z,22.81
2023-04-23T09:40:39.574Z,22.97
2023-04-23T09:43:16.734Z,23.21
2023-04-23T09:45:54.131Z,23.80
2023-04-23T09:48:22.714Z,23.76
2023-04-23T09:50:51.201Z,24.28
2023-04-23T09:53:21.094Z,24.20
2023-04-23T09:55:56.709Z,24.67
2023-04-23T09:58:28.866Z,24.52
2023-04-23T10:01:08.539Z,24.46
2023-04-23T10:03:39.174Z,24.69
2023-04-23T10:06:17.249Z,24.61
2023-04-23T10:08:56.953Z,23.76
2023-04-23T10:11:26.106Z,24.34
2023-04-23T10:13:56.853Z,23.98
2023-04-23T10:16:28.468Z,24.15
2023-04-23T10:19:05.000Z,23.80
2023-04-23T10:21:46.286Z,24.02
2023-04-23T10:24:22.206Z,23.73
2023-04-23T10:26:51.541Z,23.81
2023-04-23T10:29:25.701Z,24.11
2023-04-23T10:31:54.681Z,24.35
2023-04-23T10:34:23.558Z,24.75
2023-04-23T10:36:52.321Z,24.91
2023-04-23T10:39:29.385Z,25.05
2023-04-23T10:41:58.940Z,25.47
2023-04-23T10:44:56.562Z,25.81
2023-04-23T10:47:23.864Z,26.35
2023-04-23T10:49:53.004Z,26.47
2023-04-23T10:52:25.238Z,26.13
2023-04-23T10:54:59.994Z,25.98
2023-04-23T10:57:28.686Z,26.37
2023-04-23T11:00:04.807Z,26.26
2023-04-23T11:02:47.346Z,25.82
2023-04-23T11:05:18.459Z,25.87
2023-04-23T11:08:18.254Z,26.50
2023-04-23T11:10:57.568Z,27.07
2023-04-23T11:13:28.621Z,26.90
2023-04-23T11:16:18.807Z,26.53
2023-04-23T11:18:57.316Z,27.00
2023-04-23T11:21:59.896Z,26.57
2023-04-23T11:24:29.991Z,26.91
2023-04-23T11:27:00.399Z,27.14
2023-04-23T11:29:29.833Z,27.10
2023-04-23T11:32:03.937Z,26.46
2023-04-23T11:34:34.232Z,26.43
2023-04-23T11:37:05.123Z,26.15
2023-04-23T11:39:33.861Z,25.96
2023-04-23T11:42:03.366Z,25.68
2023-04-23T11:44:34.357Z,26.15
2023-04-23T11:47:04.096Z,26.46
2023-04-23T11:49:32.525Z,26.02
2023-04-23T11:52:01.138Z,27.03
2023-04-23T11:54:30.270Z,27.05
2023-04-23T11:56:59.911Z,26.96
2023-04-23T11:59:28.410Z,26.84
2023-04-23T12:02:01.133Z,26.86
2023-04-23T12:04:34.526Z,26.83
2023-04-23T12:07:10.132Z,26.69
2023-04-23T12:09:47.885Z,26.02
2023-04-23T12:12:16.913Z,25.61
2023-04-23T12:14:45.258Z,24.18
2023-04-23T12:17:13.868Z,24.74
2023-04-23T12:19:47.405Z,25.06
2023-04-23T12:22:15.759Z,25.30
2023-04-23T12:24:51.587Z,26.15
2023-04-23T12:27:22.147Z,26.19
2023-04-23T12:29:51.255Z,26.82
2023-04-23T12:32:23.208Z,25.01
2023-04-23T12:34:56.941Z,24.60
2023-04-23T12:37:26.669Z,25.09
2023-04-23T12:39:56.694Z,25.26
2023-04-23T12:42:26.158Z,25.42
2023-04-23T12:44:56.781Z,25.16
2023-04-23T12:47:25.959Z,26.14
2023-04-23T12:49:56.825Z,26.94
2023-04-23T12:52:25.977Z,27.31
2023-04-23T12:54:57.010Z,27.75
2023-04-23T12:57:27.960Z,25.98
2023-04-23T12:59:57.672Z,25.98
2023-04-23T13:02:27.195Z,27.58
2023-04-23T13:05:01.170Z,27.91
2023-04-23T13:07:29.806Z,27.80
2023-04-23T13:09:59.719Z,26.95
2023-04-23T13:12:28.605Z,27.09
2023-04-23T13:14:58.091Z,27.45
2023-04-23T13:17:26.775Z,27.72
2023-04-23T13:19:55.683Z,27.41
2023-04-23T13:22:28.751Z,28.02
2023-04-23T13:24:58.165Z,28.15
2023-04-23T13:27:26.938Z,27.53
2023-04-23T13:29:55.356Z,27.78
2023-04-23T13:32:25.251Z,28.62
2023-04-23T13:34:53.527Z,28.50
2023-04-23T13:37:21.870Z,28.40
2023-04-23T13:39:51.395Z,28.72
2023-04-23T13:42:19.562Z,28.88
2023-04-23T13:44:47.819Z,28.49
2023-04-23T13:47:16.208Z,27.33
2023-04-23T13:49:44.779Z,27.10
2023-04-23T13:52:13.384Z,25.31
2023-04-23T13:54:42.279Z,24.72
2023-04-23T13:57:11.886Z,25.98
2023-04-23T13:59:40.292Z,27.02
2023-04-23T14:02:08.847Z,26.98
2023-04-23T14:04:37.586Z,26.76
2023-04-23T14:07:06.649Z,26.91
2023-04-23T14:09:35.831Z,27.24
2023-04-23T14:12:04.109Z,26.92
2023-04-23T14:14:33.704Z,26.11
2023-04-23T14:17:02.251Z,26.60
2023-04-23T14:19:34.611Z,26.82
2023-04-23T14:22:02.894Z,26.83
2023-04-23T14:24:35.715Z,26.99
2023-04-23T14:27:05.661Z,27.39
2023-04-23T14:29:41.984Z,26.82
2023-04-23T14:32:10.569Z,27.12
2023-04-23T14:34:38.699Z,27.37
2023-04-23T14:37:07.042Z,27.55
2023-04-23T14:39:54.399Z,27.27
2023-04-23T14:42:22.622Z,26.41
2023-04-23T14:44:56.736Z,26.54
2023-04-23T14:47:26.360Z,26.69
2023-04-23T14:49:57.531Z,26.65
2023-04-23T14:52:25.838Z,26.00
2023-04-23T14:54:57.134Z,26.16
2023-04-23T14:57:26.271Z,25.45
2023-04-23T14:59:55.910Z,25.46
2023-04-23T15:02:24.244Z,25.68
2023-04-23T15:04:54.141Z,25.31
2023-04-23T15:07:22.519Z,24.90
2023-04-23T15:09:50.800Z,24.60
2023-04-23T15:12:43.478Z,24.46
2023-04-23T15:15:30.447Z,24.27
2023-04-23T15:18:02.091Z,23.84
2023-04-23T15:20:31.249Z,23.78
2023-04-23T15:23:00.490Z,23.85
2023-04-23T15:25:33.210Z,23.75
2023-04-23T15:28:03.188Z,23.46
2023-04-23T15:30:32.951Z,23.19
2023-04-23T15:33:01.370Z,23.12
2023-04-23T15:35:30.077Z,22.86
2023-04-23T15:37:58.839Z,22.70
2023-04-23T15:40:29.516Z,22.54
2023-04-23T15:42:57.853Z,22.36
2023-04-23T15:45:26.126Z,22.19
2023-04-23T15:47:57.042Z,22.07
2023-04-23T15:50:27.472Z,21.91
2023-04-23T15:52:58.579Z,22.04
2023-04-23T15:55:27.220Z,22.14
2023-04-23T15:57:55.933Z,22.39
2023-04-23T16:00:24.292Z,22.05
2023-04-23T16:02:52.973Z,22.19
2023-04-23T16:05:23.004Z,21.83
2023-04-23T16:07:51.691Z,22.12
2023-04-23T16:10:20.545Z,22.41
2023-04-23T16:12:48.996Z,22.39
2023-04-23T16:15:17.270Z,22.35
2023-04-23T16:17:47.128Z,22.30
2023-04-23T16:20:16.539Z,22.12
2023-04-23T16:22:46.293Z,22.23
2023-04-23T16:25:14.800Z,22.27
2023-04-23T16:27:43.585Z,22.40
2023-04-23T16:30:12.580Z,22.18
2023-04-23T16:32:44.022Z,22.19
2023-04-23T16:35:13.164Z,22.08
2023-04-23T16:37:44.552Z,21.99
2023-04-23T16:40:15.953Z,21.93
2023-04-23T16:42:44.825Z,21.79
2023-04-23T16:45:14.147Z,21.56
2023-04-23T16:47:43.651Z,21.42
2023-04-23T16:50:12.737Z,21.16
2023-04-23T16:52:42.170Z,21.08
2023-04-23T16:55:12.207Z,21.26
2023-04-23T16:57:43.534Z,20.93
2023-04-23T17:00:13.570Z,20.08
2023-04-23T17:02:44.432Z,19.19
2023-04-23T17:05:13.722Z,17.91
2023-04-23T17:07:44.108Z,15.83
2023-04-23T17:10:12.808Z,13.75
2023-04-23T17:12:44.436Z,13.64
2023-04-23T17:15:13.515Z,13.81
2023-04-23T17:17:42.483Z,13.90
2023-04-23T17:20:11.721Z,13.87
2023-04-23T17:22:40.928Z,13.87
2023-04-23T17:25:10.849Z,14.00
2023-04-23T17:27:40.221Z,13.77
2023-04-23T17:30:11.892Z,13.95
2023-04-23T17:32:42.025Z,13.96
2023-04-23T17:35:11.593Z,14.30
2023-04-23T17:37:40.776Z,14.31
2023-04-23T17:40:11.525Z,13.76
2023-04-23T17:42:41.116Z,14.02
2023-04-23T17:45:14.091Z,13.99
2023-04-23T17:47:43.487Z,13.76
2023-04-23T17:50:13.859Z,13.97
2023-04-23T17:52:50.034Z,13.84
2023-04-23T17:55:22.371Z,14.11
2023-04-23T17:57:52.224Z,13.90
2023-04-23T18:00:23.895Z,14.06
2023-04-23T18:02:54.070Z,14.07
2023-04-23T18:05:24.039Z,14.06
2023-04-23T18:07:53.315Z,13.95
2023-04-23T18:10:23.746Z,14.18
2023-04-23T18:12:52.813Z,14.36
2023-04-23T18:15:26.137Z,14.00
2023-04-23T18:17:56.248Z,14.24
2023-04-23T18:20:27.026Z,14.51
2023-04-23T18:22:56.300Z,14.10
2023-04-23T18:25:26.069Z,14.45
2023-04-23T18:27:56.346Z,14.18
2023-04-23T18:30:27.354Z,14.47
2023-04-23T18:33:04.378Z,14.44
2023-04-23T18:35:33.757Z,14.45
2023-04-23T18:38:08.327Z,14.16
2023-04-23T18:40:38.335Z,14.35
2023-04-23T18:43:07.725Z,14.33
2023-04-23T18:45:37.907Z,14.13
2023-04-23T18:48:39.380Z,13.94
2023-04-23T18:51:23.431Z,14.11
2023-04-23T18:53:53.460Z,14.27
2023-04-23T18:56:23.485Z,14.22
2023-04-23T18:58:52.592Z,13.81
2023-04-23T19:01:24.880Z,14.14
2023-04-23T19:03:54.088Z,13.93
2023-04-23T19:06:24.999Z,13.86
2023-04-23T19:08:56.414Z,13.73
2023-04-23T19:11:28.138Z,13.86
2023-04-23T19:13:58.198Z,14.22
2023-04-23T19:16:30.667Z,14.20
2023-04-23T19:19:00.069Z,13.93
2023-04-23T19:21:29.548Z,14.10
2023-04-23T19:23:58.912Z,13.97
2023-04-23T19:26:30.650Z,13.98
2023-04-23T19:29:00.402Z,13.83
2023-04-23T19:31:31.762Z,13.97
2023-04-23T19:34:02.123Z,13.87
2023-04-23T19:36:33.147Z,14.46
2023-04-23T19:39:04.564Z,13.92
2023-04-23T19:41:34.720Z,13.98
2023-04-23T19:44:05.328Z,13.92
2023-04-23T19:46:36.795Z,13.78
2023-04-23T19:49:06.470Z,13.76
2023-04-23T19:51:39.510Z,13.85
2023-04-23T19:54:08.755Z,13.62
2023-04-23T19:56:38.007Z,13.56
2023-04-23T19:59:10.152Z,13.61
2023-04-23T20:01:41.395Z,13.71
2023-04-23T20:04:10.414Z,13.62
2023-04-23T20:06:39.494Z,13.66
2023-04-23T20:09:09.532Z,13.58
2023-04-23T20:11:39.197Z,13.70
2023-04-23T20:14:07.680Z,13.55
2023-04-23T20:16:38.521Z,13.47
2023-04-23T20:19:11.105Z,13.64
2023-04-23T20:21:40.351Z,13.62
2023-04-23T20:24:09.961Z,13.33
2023-04-23T20:26:40.357Z,13.39
2023-04-23T20:29:09.902Z,13.17
2023-04-23T20:31:38.748Z,13.43
2023-04-23T20:34:09.090Z,13.35
2023-04-23T20:36:39.045Z,13.29
2023-04-23T20:39:08.847Z,13.23
2023-04-23T20:41:37.551Z,13.06
2023-04-23T20:44:06.431Z,13.33
2023-04-23T20:46:37.003Z,13.58
2023-04-23T20:49:06.038Z,13.53
2023-04-23T20:51:36.057Z,13.53
2023-04-23T20:54:04.345Z,13.29
2023-04-23T20:56:32.664Z,13.41
2023-04-23T20:59:01.530Z,13.66
2023-04-23T21:01:31.058Z,13.53
2023-04-23T21:04:01.066Z,13.34
2023-04-23T21:06:31.347Z,13.38
2023-04-23T21:09:01.395Z,13.23
2023-04-23T21:11:31.201Z,13.35
2023-04-23T21:14:00.913Z,13.14
2023-04-23T21:16:29.717Z,12.94
2023-04-23T21:18:58.312Z,13.13
2023-04-23T21:21:29.697Z,12.78
2023-04-23T21:23:59.685Z,13.11
2023-04-23T21:26:30.408Z,13.07
2023-04-23T21:28:58.996Z,13.04
2023-04-23T21:31:37.647Z,13.05
2023-04-23T21:34:06.179Z,13.01
2023-04-23T21:36:34.579Z,12.92
2023-04-23T21:39:03.298Z,12.72
2023-04-23T21:41:33.029Z,12.63
2023-04-23T21:44:01.568Z,12.67
2023-04-23T21:46:30.495Z,12.66
2023-04-23T21:48:59.260Z,12.81
2023-04-23T21:51:28.179Z,12.96
2023-04-23T21:53:59.036Z,13.16
2023-04-23T21:56:27.345Z,12.80
2023-04-23T21:58:57.004Z,12.63
2023-04-23T22:01:25.177Z,12.72
2023-04-23T22:03:53.537Z,12.68
2023-04-23T22:06:21.834Z,12.51
2023-04-23T22:08:51.252Z,12.32
2023-04-23T22:11:19.763Z,12.34
2023-04-23T22:13:48.008Z,12.13
2023-04-23T22:16:27.556Z,12.93
2023-04-23T22:18:57.213Z,12.76
2023-04-23T22:21:25.474Z,12.95
2023-04-23T22:23:53.702Z,12.57
2023-04-23T22:26:22.907Z,12.59
2023-04-23T22:28:51.231Z,12.57
2023-04-23T22:31:21.065Z,12.37
2023-04-23T22:33:49.496Z,12.29
2023-04-23T22:36:18.069Z,11.98
2023-04-23T22:38:46.445Z,11.91
2023-04-23T22:41:14.695Z,12.03
2023-04-23T22:43:43.198Z,12.27
2023-04-23T22:46:11.663Z,12.26
2023-04-23T22:48:44.733Z,12.14
2023-04-23T22:51:13.022Z,12.00
2023-04-23T22:53:41.669Z,12.10
2023-04-23T22:56:10.022Z,12.04
2023-04-23T22:58:38.321Z,11.97
2023-04-23T23:01:07.041Z,11.94
2023-04-23T23:03:35.528Z,11.87
2023-04-23T23:06:05.610Z,11.70
2023-04-23T23:08:33.920Z,11.82
2023-04-23T23:11:02.142Z,11.67
2023-04-23T23:13:30.697Z,11.55
2023-04-23T23:16:02.416Z,11.59
2023-04-23T23:18:30.756Z,9.74
2023-04-23T23:20:59.064Z,10.84
2023-04-23T23:23:28.752Z,10.61
2023-04-23T23:25:59.404Z,10.95
2023-04-23T23:28:28.266Z,11.14
2023-04-23T23:30:57.883Z,10.99
2023-04-23T23:33:27.356Z,11.02
2023-04-23T23:35:56.082Z,11.12
2023-04-23T23:38:24.287Z,10.98
2023-04-23T23:40:54.058Z,11.44
2023-04-23T23:43:22.244Z,11.35
2023-04-23T23:45:50.966Z,9.77
2023-04-23T23:48:19.450Z,9.40
2023-04-23T23:50:47.748Z,10.71
2023-04-23T23:53:16.096Z,10.63
2023-04-23T23:55:44.422Z,10.79
2023-04-23T23:58:13.969Z,10.94
